Yr Wyddgrug, United Kingdom
Current Conditions -  °F | °C
As of 1:50 PM on Monday 20 Oct 2014 (Local Time) from EGNR Reporting Station
Few Clouds Few Clouds  
Wind Chill: 15°   Ceiling: Unl
Heat Index: 15°   Visibility: 6mi
Dew Point: 10°   Wind: 14mph
Humidity: 72%   Direction: 240°WSW
Pressure: 29.88"   Gusts: NA
Location:  53.17°N, 3.14°W
Report Text: EGNR 201250Z 24012KT 9999 FEW035 15/10 Q1012
Loading
Personal Weather Stations






























Interactive Weather Map
Tropical Storm Tracking
New forecast layout! Learn more

10-Day Weather Forecast

Advertisements
Track Severe Weather on mobile